createdAt,value
2022-12-14T15:53:32.392Z,0.10
2022-12-14T15:56:08.331Z,0.30
2022-12-14T15:58:40.096Z,0.60
2022-12-14T16:01:19.206Z,0.80
2022-12-14T16:03:50.314Z,0.70
2022-12-14T16:06:18.903Z,0.70
2022-12-14T16:08:53.945Z,0.80
2022-12-14T16:11:26.478Z,1.00
2022-12-14T16:13:56.228Z,0.80
2022-12-14T16:16:24.161Z,1.00
2022-12-14T16:18:52.688Z,1.00
2022-12-14T16:21:29.383Z,0.80
2022-12-14T16:23:58.998Z,1.10
2022-12-14T16:26:29.757Z,0.90
2022-12-14T16:29:10.079Z,1.00
2022-12-14T16:31:39.122Z,1.00
2022-12-14T16:34:09.506Z,1.10
2022-12-14T16:36:37.951Z,0.80
2022-12-14T16:39:15.400Z,1.10
2022-12-14T16:41:46.413Z,0.80
2022-12-14T16:44:22.440Z,0.90
2022-12-14T16:47:07.868Z,0.90
2022-12-14T16:49:38.803Z,1.00
2022-12-14T16:52:17.362Z,0.90
2022-12-14T16:55:07.163Z,0.90
2022-12-14T16:57:35.540Z,0.90
2022-12-14T17:00:06.643Z,0.80
2022-12-14T17:02:37.282Z,1.00
2022-12-14T17:05:12.914Z,0.70
2022-12-14T17:07:41.052Z,0.70
2022-12-14T17:10:15.686Z,0.90
2022-12-14T17:12:45.038Z,0.90
2022-12-14T17:15:14.755Z,0.80
2022-12-14T17:17:42.826Z,0.70
2022-12-14T17:20:21.395Z,0.70
2022-12-14T17:22:49.893Z,1.00
2022-12-14T17:25:19.602Z,1.00
2022-12-14T17:27:47.835Z,0.70
2022-12-14T17:30:19.045Z,1.00
2022-12-14T17:32:47.702Z,0.80
2022-12-14T17:35:20.227Z,0.60
2022-12-14T17:37:48.184Z,0.70
2022-12-14T17:40:18.676Z,0.70
2022-12-14T17:42:52.641Z,0.60
2022-12-14T17:45:23.384Z,0.90
2022-12-14T17:47:51.626Z,0.90
2022-12-14T17:50:20.411Z,0.60
2022-12-14T17:52:50.304Z,0.70
2022-12-14T17:55:22.289Z,0.60
2022-12-14T17:57:50.805Z,0.90
2022-12-14T18:00:38.350Z,0.70
2022-12-14T18:03:07.316Z,0.60
2022-12-14T18:05:35.489Z,0.70
2022-12-14T18:08:03.241Z,0.70
2022-12-14T18:10:33.055Z,0.70
2022-12-14T18:13:01.665Z,0.70
2022-12-14T18:15:31.819Z,0.90
2022-12-14T18:17:59.812Z,0.70
2022-12-14T18:20:27.690Z,0.90
2022-12-14T18:22:55.650Z,0.90
2022-12-14T18:25:29.091Z,0.60
2022-12-14T18:27:59.159Z,0.80
2022-12-14T18:30:28.529Z,0.80
2022-12-14T18:32:58.372Z,0.60
2022-12-14T18:35:28.790Z,0.80
2022-12-14T18:37:56.692Z,0.60
2022-12-14T18:40:27.489Z,0.60
2022-12-14T18:42:56.224Z,0.70
2022-12-14T18:45:27.553Z,0.70
2022-12-14T18:47:55.798Z,0.60
2022-12-14T18:50:24.816Z,0.50
2022-12-14T18:52:52.722Z,0.40
2022-12-14T18:55:22.015Z,0.70
2022-12-14T18:57:51.768Z,0.40
2022-12-14T19:00:21.937Z,0.30
2022-12-14T19:02:52.142Z,0.30
2022-12-14T19:05:26.094Z,0.50
2022-12-14T19:07:54.815Z,0.30
2022-12-14T19:10:25.043Z,0.20
2022-12-14T19:12:52.784Z,0.50
2022-12-14T19:15:23.423Z,0.30
2022-12-14T19:17:53.227Z,0.30
2022-12-14T19:20:21.610Z,0.40
2022-12-14T19:22:49.923Z,0.60
2022-12-14T19:25:18.910Z,0.30
2022-12-14T19:30:34.604Z,0.30
2022-12-14T19:33:03.904Z,0.20
2022-12-14T19:35:32.163Z,0.30
2022-12-14T19:38:00.175Z,0.50
2022-12-14T19:40:28.073Z,0.30
2022-12-14T19:42:56.058Z,0.30
2022-12-14T19:45:23.848Z,0.00
2022-12-14T19:47:51.626Z,0.30
2022-12-14T19:50:20.915Z,0.40
2022-12-14T19:52:48.647Z,0.30
2022-12-14T19:55:16.502Z,0.20
2022-12-14T19:57:44.286Z,0.20
2022-12-14T20:00:13.196Z,-0.30
2022-12-14T20:02:41.015Z,0.20
2022-12-14T20:05:09.835Z,0.40
2022-12-14T20:07:43.876Z,0.20
2022-12-14T20:10:12.086Z,0.00
2022-12-14T20:12:39.931Z,0.10
2022-12-14T20:15:08.401Z,0.20
2022-12-14T20:17:36.286Z,0.00
2022-12-14T20:20:04.213Z,0.00
2022-12-14T20:22:32.092Z,0.20
2022-12-14T20:25:02.139Z,0.00
2022-12-14T20:27:29.960Z,-0.10
2022-12-14T20:29:58.506Z,0.10
2022-12-14T20:32:26.305Z,-0.10
2022-12-14T20:34:54.087Z,0.00
2022-12-14T20:37:21.931Z,-0.20
2022-12-14T20:39:49.678Z,-0.20
2022-12-14T20:42:18.819Z,0.00
2022-12-14T20:44:49.229Z,-0.40
2022-12-14T20:47:17.534Z,-0.50
2022-12-14T20:49:45.420Z,-0.50
2022-12-14T20:52:13.138Z,-0.60
2022-12-14T20:54:40.824Z,-0.50
2022-12-14T20:57:08.639Z,-0.60
2022-12-14T20:59:37.665Z,-0.40
2022-12-14T21:02:05.821Z,-0.50
2022-12-14T21:04:33.969Z,-0.50
